Varanasi - Babatpur, India

10:10 PM IST on April 25, 2015 (GMT +0530)
Varanasi | | Change Station
CLOSE
Current Station
Airport
Location: Varanasi - Babatpur,
Elevation: 266 ft
Nearby Weather Stations

Elev 266 ft 25.45 °N, 82.86 °E | Updated 1 hour ago

Haze
Haze
77 °F
Feels Like 77 °F
N
13
Wind Variable Wind from NE

Today
High -- | Low -- °F
--% Chance of Precip.
Yesterday
High -- | Low -- °F
Precip. -- in
5:27 AM 6:25 PM
Waxing Crescent, 47% visible
Pressure 29.83 in
Visibility 2.5 miles
Clouds
Dew Point 66 °F
Humidity 69%
Rainfall 0.00 in
Snow Depth Not available.
UV Not available.
Pollen Not available.
Air Quality Not available.
Flu Activity Not available.
METAR VIBN 251530Z 04011KT 4000 HZ NSC 25/19 Q1010

More Conditions Fewer Conditions

Pressure 29.83 in
Visibility 2.5 miles
Clouds
Dew Point 66 °F
Humidity 69%
Rainfall 0.00 in
Snow Depth Not available.
UV Not available.
Pollen Not available.
Air Quality Not available.
Flu Activity Not available.
METAR VIBN 251530Z 04011KT 4000 HZ NSC 25/19 Q1010

More Conditions Fewer Conditions

10-Day Weather Forecast

Almanac

Astronomy

Apr. 25, 2015 Rise Set
Actual Time
Civil Twilight
Nautical Twilight
Astronomical Twilight
Moon
Length of Visible Light
Length of Day
Tomorrow will be .
, % of the Moon is Illuminated

Today's Extremes

Country Highs Country Lows

Community

WunderPhotos

Upload Photos

1,816,737 photos uploaded!

WunderBlogs® & News

Nearby

Air Quality

  Air Quality AQ Index Pollutant
Not available.

Snow Depth

Station Depth Elevation

Earthquake Activity

City Distance Mag. Time & Date
Minimum magnitude displayed is 2.5.

Coastal Water Temperatures

Place Temperature

Stations

Nearby Weather Stations

Station Location Temp. Windchill Dew Point Humidity Wind Precip. Elev Updated Type